KTRL/TRL METAR and TAF weather

Enter ICAO airport designator
Station Type Date Time Source
KTRL METAR 2019/12/08 16:53 UTC NOAA

KTRL 081653Z AUTO 17015KT 7SM CLR 14/10 A3002 RMK AO2 SLP164 T01440100


Station Type Date Time Source
KTRL Decoded METAR 2019/12/08 16:53 UTC NOAA

TERRELL MUNICIPAL AIRPORT, TX, United States (KTRL) 32-43N 96-16W 144M
Dec 08, 2019 - 11:53 AM EST / 2019.12.08 1653 UTC
Wind: from the S (170 degrees) at 17 MPH (15 KT):0
Visibility: 7 mile(s):0
Sky conditions: clear
Temperature: 57.9 F (14.4 C)
Dew Point: 50.0 F (10.0 C)
Relative Humidity: 74%
Pressure (altimeter): 30.02 in. Hg (1016 hPa)
ob: KTRL 081653Z AUTO 17015KT 7SM CLR 14/10 A3002 RMK AO2 SLP164 T01440100
cycle: 17

Station Type Date Time Source
KTRL TAF UTC NOAA

Error!

Example: see airport list